sensor_id;sensor_type;location;lat;lon;timestamp;P1;durP1;ratioP1;P2;durP2;ratioP2
33840;SDS011;20142;28.494;-16.312;2022-08-19T00:00:14;22.17;;;2.92;;
33840;SDS011;20142;28.494;-16.312;2022-08-19T00:05:17;25.40;;;3.55;;
33840;SDS011;20142;28.494;-16.312;2022-08-19T00:10:20;13.40;;;2.35;;
33840;SDS011;20142;28.494;-16.312;2022-08-19T00:15:22;15.55;;;2.50;;
33840;SDS011;20142;28.494;-16.312;2022-08-19T00:20:24;28.83;;;3.10;;
33840;SDS011;20142;28.494;-16.312;2022-08-19T00:25:26;26.50;;;3.20;;
33840;SDS011;20142;28.494;-16.312;2022-08-19T00:30:28;29.05;;;3.70;;
33840;SDS011;20142;28.494;-16.312;2022-08-19T00:35:30;23.80;;;3.08;;
33840;SDS011;20142;28.494;-16.312;2022-08-19T00:40:33;26.67;;;2.97;;
33840;SDS011;20142;28.494;-16.312;2022-08-19T00:45:35;27.35;;;3.58;;
33840;SDS011;20142;28.494;-16.312;2022-08-19T00:50:39;21.50;;;3.53;;
33840;SDS011;20142;28.494;-16.312;2022-08-19T00:55:44;28.02;;;3.47;;
33840;SDS011;20142;28.494;-16.312;2022-08-19T01:00:49;27.63;;;3.33;;
33840;SDS011;20142;28.494;-16.312;2022-08-19T01:05:51;26.40;;;3.55;;
33840;SDS011;20142;28.494;-16.312;2022-08-19T01:10:56;31.38;;;3.38;;
33840;SDS011;20142;28.494;-16.312;2022-08-19T01:16:03;29.58;;;3.83;;
33840;SDS011;20142;28.494;-16.312;2022-08-19T01:21:31;27.25;;;3.97;;
33840;SDS011;20142;28.494;-16.312;2022-08-19T01:26:38;27.80;;;3.53;;
33840;SDS011;20142;28.494;-16.312;2022-08-19T01:31:42;35.88;;;3.97;;
33840;SDS011;20142;28.494;-16.312;2022-08-19T01:36:45;29.05;;;3.33;;
33840;SDS011;20142;28.494;-16.312;2022-08-19T01:41:49;24.55;;;3.55;;
33840;SDS011;20142;28.494;-16.312;2022-08-19T01:46:54;29.20;;;4.15;;
33840;SDS011;20142;28.494;-16.312;2022-08-19T01:51:56;26.30;;;4.65;;
33840;SDS011;20142;28.494;-16.312;2022-08-19T01:57:03;25.20;;;4.28;;
33840;SDS011;20142;28.494;-16.312;2022-08-19T02:02:08;25.50;;;4.60;;
33840;SDS011;20142;28.494;-16.312;2022-08-19T02:07:09;26.73;;;5.35;;
33840;SDS011;20142;28.494;-16.312;2022-08-19T02:12:11;25.45;;;4.78;;
33840;SDS011;20142;28.494;-16.312;2022-08-19T02:17:13;29.63;;;5.03;;
33840;SDS011;20142;28.494;-16.312;2022-08-19T02:22:15;21.38;;;4.40;;
33840;SDS011;20142;28.494;-16.312;2022-08-19T02:27:17;26.13;;;4.70;;
33840;SDS011;20142;28.494;-16.312;2022-08-19T02:32:19;26.38;;;5.65;;
33840;SDS011;20142;28.494;-16.312;2022-08-19T02:37:21;33.55;;;4.50;;
33840;SDS011;20142;28.494;-16.312;2022-08-19T02:42:42;20.05;;;3.90;;
33840;SDS011;20142;28.494;-16.312;2022-08-19T02:47:45;22.42;;;3.70;;
33840;SDS011;20142;28.494;-16.312;2022-08-19T02:52:47;23.38;;;3.92;;
33840;SDS011;20142;28.494;-16.312;2022-08-19T02:57:49;20.20;;;2.83;;
33840;SDS011;20142;28.494;-16.312;2022-08-19T03:02:52;25.88;;;3.78;;
33840;SDS011;20142;28.494;-16.312;2022-08-19T03:07:54;22.25;;;4.00;;
33840;SDS011;20142;28.494;-16.312;2022-08-19T03:12:56;17.75;;;3.78;;
33840;SDS011;20142;28.494;-16.312;2022-08-19T03:17:58;26.90;;;5.13;;
33840;SDS011;20142;28.494;-16.312;2022-08-19T03:23:00;23.27;;;4.50;;
33840;SDS011;20142;28.494;-16.312;2022-08-19T03:28:02;20.40;;;5.07;;
33840;SDS011;20142;28.494;-16.312;2022-08-19T03:33:04;22.42;;;5.00;;
33840;SDS011;20142;28.494;-16.312;2022-08-19T03:38:06;29.42;;;4.85;;
33840;SDS011;20142;28.494;-16.312;2022-08-19T03:43:08;24.85;;;5.30;;
33840;SDS011;20142;28.494;-16.312;2022-08-19T03:48:10;31.58;;;5.38;;
33840;SDS011;20142;28.494;-16.312;2022-08-19T03:53:12;30.75;;;5.10;;
33840;SDS011;20142;28.494;-16.312;2022-08-19T03:58:14;19.67;;;5.50;;
33840;SDS011;20142;28.494;-16.312;2022-08-19T04:03:16;26.42;;;5.68;;
33840;SDS011;20142;28.494;-16.312;2022-08-19T04:08:19;22.00;;;6.25;;
33840;SDS011;20142;28.494;-16.312;2022-08-19T04:13:22;31.58;;;6.97;;
33840;SDS011;20142;28.494;-16.312;2022-08-19T04:18:24;32.88;;;6.70;;
33840;SDS011;20142;28.494;-16.312;2022-08-19T04:23:26;24.67;;;5.78;;
33840;SDS011;20142;28.494;-16.312;2022-08-19T04:28:28;26.85;;;6.45;;
33840;SDS011;20142;28.494;-16.312;2022-08-19T04:33:30;32.90;;;6.38;;
33840;SDS011;20142;28.494;-16.312;2022-08-19T04:38:32;24.63;;;6.05;;
33840;SDS011;20142;28.494;-16.312;2022-08-19T04:43:35;25.80;;;5.72;;
33840;SDS011;20142;28.494;-16.312;2022-08-19T04:48:38;22.48;;;6.47;;
33840;SDS011;20142;28.494;-16.312;2022-08-19T04:53:40;31.83;;;5.80;;
33840;SDS011;20142;28.494;-16.312;2022-08-19T04:58:43;22.38;;;5.90;;
33840;SDS011;20142;28.494;-16.312;2022-08-19T05:03:45;25.48;;;5.93;;
33840;SDS011;20142;28.494;-16.312;2022-08-19T05:08:48;20.70;;;4.97;;
33840;SDS011;20142;28.494;-16.312;2022-08-19T05:13:50;27.70;;;5.95;;
33840;SDS011;20142;28.494;-16.312;2022-08-19T05:18:52;39.35;;;7.25;;
33840;SDS011;20142;28.494;-16.312;2022-08-19T05:24:14;24.55;;;5.88;;
33840;SDS011;20142;28.494;-16.312;2022-08-19T05:29:17;34.22;;;5.80;;
33840;SDS011;20142;28.494;-16.312;2022-08-19T05:34:21;23.33;;;5.63;;
33840;SDS011;20142;28.494;-16.312;2022-08-19T05:39:28;30.27;;;5.72;;
33840;SDS011;20142;28.494;-16.312;2022-08-19T05:44:31;20.15;;;5.40;;
33840;SDS011;20142;28.494;-16.312;2022-08-19T05:49:36;20.05;;;5.18;;
33840;SDS011;20142;28.494;-16.312;2022-08-19T05:54:39;24.13;;;5.75;;
33840;SDS011;20142;28.494;-16.312;2022-08-19T05:59:42;18.80;;;5.18;;
33840;SDS011;20142;28.494;-16.312;2022-08-19T06:04:46;22.02;;;4.85;;
33840;SDS011;20142;28.494;-16.312;2022-08-19T06:09:48;22.10;;;5.25;;
33840;SDS011;20142;28.494;-16.312;2022-08-19T06:14:50;27.10;;;5.45;;
33840;SDS011;20142;28.494;-16.312;2022-08-19T06:19:53;27.33;;;5.28;;
33840;SDS011;20142;28.494;-16.312;2022-08-19T06:24:55;21.90;;;5.10;;
33840;SDS011;20142;28.494;-16.312;2022-08-19T06:29:57;19.25;;;5.10;;
33840;SDS011;20142;28.494;-16.312;2022-08-19T06:34:59;26.38;;;5.63;;
33840;SDS011;20142;28.494;-16.312;2022-08-19T06:40:01;22.60;;;4.93;;
33840;SDS011;20142;28.494;-16.312;2022-08-19T06:45:04;22.50;;;5.43;;
33840;SDS011;20142;28.494;-16.312;2022-08-19T06:50:08;26.08;;;5.00;;
33840;SDS011;20142;28.494;-16.312;2022-08-19T06:55:10;29.13;;;5.45;;
33840;SDS011;20142;28.494;-16.312;2022-08-19T07:00:12;21.73;;;5.18;;
33840;SDS011;20142;28.494;-16.312;2022-08-19T07:05:14;31.67;;;5.88;;
33840;SDS011;20142;28.494;-16.312;2022-08-19T07:10:17;27.15;;;5.78;;
33840;SDS011;20142;28.494;-16.312;2022-08-19T07:15:19;27.95;;;5.53;;
33840;SDS011;20142;28.494;-16.312;2022-08-19T07:20:21;26.88;;;5.57;;
33840;SDS011;20142;28.494;-16.312;2022-08-19T07:25:24;24.33;;;5.47;;
33840;SDS011;20142;28.494;-16.312;2022-08-19T07:30:26;31.48;;;5.57;;
33840;SDS011;20142;28.494;-16.312;2022-08-19T07:35:28;21.83;;;4.57;;
33840;SDS011;20142;28.494;-16.312;2022-08-19T07:40:32;27.40;;;5.40;;
33840;SDS011;20142;28.494;-16.312;2022-08-19T07:45:34;27.83;;;5.25;;
33840;SDS011;20142;28.494;-16.312;2022-08-19T07:50:36;23.02;;;5.25;;
33840;SDS011;20142;28.494;-16.312;2022-08-19T07:55:38;23.23;;;5.18;;
33840;SDS011;20142;28.494;-16.312;2022-08-19T08:00:41;21.83;;;4.40;;
33840;SDS011;20142;28.494;-16.312;2022-08-19T08:05:43;17.88;;;3.67;;
33840;SDS011;20142;28.494;-16.312;2022-08-19T08:11:04;19.05;;;4.65;;
33840;SDS011;20142;28.494;-16.312;2022-08-19T08:16:06;26.88;;;5.05;;
33840;SDS011;20142;28.494;-16.312;2022-08-19T08:21:08;16.35;;;4.57;;
33840;SDS011;20142;28.494;-16.312;2022-08-19T08:26:10;21.48;;;5.78;;
33840;SDS011;20142;28.494;-16.312;2022-08-19T08:31:14;19.95;;;4.78;;
33840;SDS011;20142;28.494;-16.312;2022-08-19T08:36:16;22.33;;;4.60;;
33840;SDS011;20142;28.494;-16.312;2022-08-19T08:41:23;26.45;;;4.70;;
33840;SDS011;20142;28.494;-16.312;2022-08-19T08:47:10;15.68;;;4.30;;
33840;SDS011;20142;28.494;-16.312;2022-08-19T08:52:13;26.10;;;4.93;;
33840;SDS011;20142;28.494;-16.312;2022-08-19T09:02:55;20.20;;;4.15;;
33840;SDS011;20142;28.494;-16.312;2022-08-19T09:08:00;16.13;;;3.70;;
33840;SDS011;20142;28.494;-16.312;2022-08-19T09:13:12;15.82;;;4.32;;
33840;SDS011;20142;28.494;-16.312;2022-08-19T09:18:16;18.25;;;4.05;;
33840;SDS011;20142;28.494;-16.312;2022-08-19T09:23:18;19.15;;;3.92;;
33840;SDS011;20142;28.494;-16.312;2022-08-19T09:28:24;29.83;;;4.55;;
33840;SDS011;20142;28.494;-16.312;2022-08-19T09:33:26;20.27;;;4.60;;
33840;SDS011;20142;28.494;-16.312;2022-08-19T09:38:28;24.20;;;4.20;;
33840;SDS011;20142;28.494;-16.312;2022-08-19T09:43:30;21.10;;;4.22;;
33840;SDS011;20142;28.494;-16.312;2022-08-19T09:48:38;17.23;;;3.67;;
33840;SDS011;20142;28.494;-16.312;2022-08-19T09:53:41;20.77;;;4.15;;
33840;SDS011;20142;28.494;-16.312;2022-08-19T09:58:45;10.43;;;4.13;;
33840;SDS011;20142;28.494;-16.312;2022-08-19T10:03:48;15.75;;;3.83;;
33840;SDS011;20142;28.494;-16.312;2022-08-19T10:08:52;19.65;;;3.97;;
33840;SDS011;20142;28.494;-16.312;2022-08-19T10:13:54;19.67;;;4.68;;
33840;SDS011;20142;28.494;-16.312;2022-08-19T10:18:56;19.25;;;4.60;;
33840;SDS011;20142;28.494;-16.312;2022-08-19T10:24:00;23.35;;;4.93;;
33840;SDS011;20142;28.494;-16.312;2022-08-19T10:29:04;17.15;;;4.55;;
33840;SDS011;20142;28.494;-16.312;2022-08-19T10:34:06;21.88;;;4.88;;
33840;SDS011;20142;28.494;-16.312;2022-08-19T10:39:09;21.00;;;4.63;;
33840;SDS011;20142;28.494;-16.312;2022-08-19T10:44:13;23.15;;;4.60;;
33840;SDS011;20142;28.494;-16.312;2022-08-19T10:49:16;21.50;;;4.10;;
33840;SDS011;20142;28.494;-16.312;2022-08-19T10:54:19;18.38;;;4.13;;
33840;SDS011;20142;28.494;-16.312;2022-08-19T10:59:22;22.80;;;4.68;;
33840;SDS011;20142;28.494;-16.312;2022-08-19T11:04:29;21.30;;;4.82;;
33840;SDS011;20142;28.494;-16.312;2022-08-19T11:09:36;16.67;;;3.85;;
33840;SDS011;20142;28.494;-16.312;2022-08-19T11:14:40;19.55;;;4.78;;
33840;SDS011;20142;28.494;-16.312;2022-08-19T11:19:42;18.20;;;4.63;;
33840;SDS011;20142;28.494;-16.312;2022-08-19T11:24:43;13.57;;;4.13;;
33840;SDS011;20142;28.494;-16.312;2022-08-19T11:29:45;18.70;;;4.05;;
33840;SDS011;20142;28.494;-16.312;2022-08-19T11:34:47;23.33;;;4.28;;
33840;SDS011;20142;28.494;-16.312;2022-08-19T11:39:49;14.43;;;3.95;;
33840;SDS011;20142;28.494;-16.312;2022-08-19T11:44:51;16.88;;;3.75;;
33840;SDS011;20142;28.494;-16.312;2022-08-19T11:49:53;19.98;;;4.40;;
33840;SDS011;20142;28.494;-16.312;2022-08-19T11:54:55;24.98;;;5.45;;
33840;SDS011;20142;28.494;-16.312;2022-08-19T11:59:57;17.17;;;4.57;;
33840;SDS011;20142;28.494;-16.312;2022-08-19T12:04:59;19.00;;;4.35;;
33840;SDS011;20142;28.494;-16.312;2022-08-19T12:10:04;18.90;;;4.47;;
33840;SDS011;20142;28.494;-16.312;2022-08-19T12:15:06;16.70;;;3.90;;
33840;SDS011;20142;28.494;-16.312;2022-08-19T12:20:09;21.15;;;4.80;;
33840;SDS011;20142;28.494;-16.312;2022-08-19T12:25:14;18.05;;;4.53;;
33840;SDS011;20142;28.494;-16.312;2022-08-19T12:30:16;16.95;;;4.18;;
33840;SDS011;20142;28.494;-16.312;2022-08-19T12:35:18;22.80;;;4.55;;
33840;SDS011;20142;28.494;-16.312;2022-08-19T12:40:22;19.35;;;4.75;;
33840;SDS011;20142;28.494;-16.312;2022-08-19T12:45:24;15.52;;;4.47;;
33840;SDS011;20142;28.494;-16.312;2022-08-19T12:50:26;21.35;;;4.07;;
33840;SDS011;20142;28.494;-16.312;2022-08-19T12:55:28;19.38;;;4.55;;
33840;SDS011;20142;28.494;-16.312;2022-08-19T13:00:30;19.00;;;4.38;;
33840;SDS011;20142;28.494;-16.312;2022-08-19T13:05:33;22.38;;;4.30;;
33840;SDS011;20142;28.494;-16.312;2022-08-19T13:10:36;21.60;;;4.15;;
33840;SDS011;20142;28.494;-16.312;2022-08-19T13:15:40;19.95;;;4.28;;
33840;SDS011;20142;28.494;-16.312;2022-08-19T13:20:43;19.92;;;4.65;;
33840;SDS011;20142;28.494;-16.312;2022-08-19T13:25:53;18.33;;;4.22;;
33840;SDS011;20142;28.494;-16.312;2022-08-19T13:31:00;21.80;;;4.07;;
33840;SDS011;20142;28.494;-16.312;2022-08-19T13:36:20;21.83;;;4.47;;
33840;SDS011;20142;28.494;-16.312;2022-08-19T13:41:22;14.20;;;3.95;;
33840;SDS011;20142;28.494;-16.312;2022-08-19T13:46:24;22.00;;;4.38;;
33840;SDS011;20142;28.494;-16.312;2022-08-19T13:51:28;18.15;;;3.95;;
33840;SDS011;20142;28.494;-16.312;2022-08-19T13:56:30;14.48;;;3.80;;
33840;SDS011;20142;28.494;-16.312;2022-08-19T14:01:32;20.20;;;4.35;;
33840;SDS011;20142;28.494;-16.312;2022-08-19T14:06:35;20.20;;;3.92;;
33840;SDS011;20142;28.494;-16.312;2022-08-19T14:11:37;16.80;;;4.30;;
33840;SDS011;20142;28.494;-16.312;2022-08-19T14:16:39;13.32;;;3.80;;
33840;SDS011;20142;28.494;-16.312;2022-08-19T14:21:41;20.20;;;3.92;;
33840;SDS011;20142;28.494;-16.312;2022-08-19T14:26:43;16.40;;;3.45;;
33840;SDS011;20142;28.494;-16.312;2022-08-19T14:31:45;18.27;;;3.55;;
33840;SDS011;20142;28.494;-16.312;2022-08-19T14:36:47;14.93;;;3.88;;
33840;SDS011;20142;28.494;-16.312;2022-08-19T14:41:49;13.98;;;3.60;;
33840;SDS011;20142;28.494;-16.312;2022-08-19T14:46:51;16.60;;;3.58;;
33840;SDS011;20142;28.494;-16.312;2022-08-19T14:51:53;19.70;;;4.40;;
33840;SDS011;20142;28.494;-16.312;2022-08-19T14:56:56;13.68;;;3.35;;
33840;SDS011;20142;28.494;-16.312;2022-08-19T15:01:58;20.88;;;3.80;;
33840;SDS011;20142;28.494;-16.312;2022-08-19T15:07:00;14.00;;;3.53;;
33840;SDS011;20142;28.494;-16.312;2022-08-19T15:12:04;19.95;;;3.70;;
33840;SDS011;20142;28.494;-16.312;2022-08-19T15:17:06;15.25;;;3.67;;
33840;SDS011;20142;28.494;-16.312;2022-08-19T15:22:08;15.93;;;3.90;;
33840;SDS011;20142;28.494;-16.312;2022-08-19T15:27:10;18.92;;;4.07;;
33840;SDS011;20142;28.494;-16.312;2022-08-19T15:32:13;12.23;;;3.42;;
33840;SDS011;20142;28.494;-16.312;2022-08-19T15:37:15;14.68;;;4.13;;
33840;SDS011;20142;28.494;-16.312;2022-08-19T15:42:17;18.83;;;3.85;;
33840;SDS011;20142;28.494;-16.312;2022-08-19T15:47:20;16.42;;;4.03;;
33840;SDS011;20142;28.494;-16.312;2022-08-19T15:52:22;10.93;;;3.70;;
33840;SDS011;20142;28.494;-16.312;2022-08-19T15:57:24;14.05;;;3.95;;
33840;SDS011;20142;28.494;-16.312;2022-08-19T16:02:26;14.00;;;3.47;;
33840;SDS011;20142;28.494;-16.312;2022-08-19T16:07:47;15.73;;;4.50;;
33840;SDS011;20142;28.494;-16.312;2022-08-19T16:12:50;15.77;;;3.80;;
33840;SDS011;20142;28.494;-16.312;2022-08-19T16:17:52;19.85;;;4.22;;
33840;SDS011;20142;28.494;-16.312;2022-08-19T16:22:56;19.88;;;3.95;;
33840;SDS011;20142;28.494;-16.312;2022-08-19T16:28:00;17.08;;;4.25;;
33840;SDS011;20142;28.494;-16.312;2022-08-19T16:33:03;16.67;;;4.00;;
33840;SDS011;20142;28.494;-16.312;2022-08-19T16:38:05;18.27;;;3.95;;
33840;SDS011;20142;28.494;-16.312;2022-08-19T16:43:07;18.05;;;3.78;;
33840;SDS011;20142;28.494;-16.312;2022-08-19T16:48:09;20.08;;;4.15;;
33840;SDS011;20142;28.494;-16.312;2022-08-19T16:53:11;20.02;;;4.47;;
33840;SDS011;20142;28.494;-16.312;2022-08-19T16:58:17;21.92;;;4.10;;
33840;SDS011;20142;28.494;-16.312;2022-08-19T17:03:21;16.10;;;4.50;;
33840;SDS011;20142;28.494;-16.312;2022-08-19T17:08:24;15.80;;;4.38;;
33840;SDS011;20142;28.494;-16.312;2022-08-19T17:13:26;18.65;;;4.00;;
33840;SDS011;20142;28.494;-16.312;2022-08-19T17:18:29;15.73;;;4.00;;
33840;SDS011;20142;28.494;-16.312;2022-08-19T17:23:32;14.77;;;3.85;;
33840;SDS011;20142;28.494;-16.312;2022-08-19T17:28:34;20.88;;;4.47;;
33840;SDS011;20142;28.494;-16.312;2022-08-19T17:33:36;16.85;;;4.10;;
33840;SDS011;20142;28.494;-16.312;2022-08-19T17:38:38;17.80;;;3.88;;
33840;SDS011;20142;28.494;-16.312;2022-08-19T17:43:40;16.38;;;3.97;;
33840;SDS011;20142;28.494;-16.312;2022-08-19T17:48:42;20.35;;;4.22;;
33840;SDS011;20142;28.494;-16.312;2022-08-19T17:53:44;15.75;;;4.07;;
33840;SDS011;20142;28.494;-16.312;2022-08-19T17:58:46;18.88;;;3.92;;
33840;SDS011;20142;28.494;-16.312;2022-08-19T18:03:49;15.38;;;4.03;;
33840;SDS011;20142;28.494;-16.312;2022-08-19T18:08:51;18.80;;;4.10;;
33840;SDS011;20142;28.494;-16.312;2022-08-19T18:13:53;19.08;;;4.22;;
33840;SDS011;20142;28.494;-16.312;2022-08-19T18:18:54;21.08;;;4.20;;
33840;SDS011;20142;28.494;-16.312;2022-08-19T18:23:57;16.67;;;4.10;;
33840;SDS011;20142;28.494;-16.312;2022-08-19T18:28:59;19.95;;;4.38;;
33840;SDS011;20142;28.494;-16.312;2022-08-19T18:34:01;23.42;;;4.80;;
33840;SDS011;20142;28.494;-16.312;2022-08-19T18:39:03;21.10;;;4.88;;
33840;SDS011;20142;28.494;-16.312;2022-08-19T18:44:24;18.00;;;4.43;;
33840;SDS011;20142;28.494;-16.312;2022-08-19T18:49:45;21.90;;;4.63;;
33840;SDS011;20142;28.494;-16.312;2022-08-19T18:54:50;27.67;;;4.80;;
33840;SDS011;20142;28.494;-16.312;2022-08-19T18:59:52;22.98;;;5.03;;
33840;SDS011;20142;28.494;-16.312;2022-08-19T19:04:56;28.50;;;5.55;;
33840;SDS011;20142;28.494;-16.312;2022-08-19T19:09:58;26.00;;;4.82;;
33840;SDS011;20142;28.494;-16.312;2022-08-19T19:15:00;27.00;;;5.43;;
33840;SDS011;20142;28.494;-16.312;2022-08-19T19:20:05;22.67;;;5.35;;
33840;SDS011;20142;28.494;-16.312;2022-08-19T19:25:07;28.65;;;5.85;;
33840;SDS011;20142;28.494;-16.312;2022-08-19T19:30:10;31.42;;;5.55;;
33840;SDS011;20142;28.494;-16.312;2022-08-19T19:35:13;26.00;;;5.50;;
33840;SDS011;20142;28.494;-16.312;2022-08-19T19:40:15;25.08;;;5.20;;
33840;SDS011;20142;28.494;-16.312;2022-08-19T19:45:17;29.27;;;5.35;;
33840;SDS011;20142;28.494;-16.312;2022-08-19T19:50:19;37.05;;;5.78;;
33840;SDS011;20142;28.494;-16.312;2022-08-19T19:55:22;26.58;;;5.65;;
33840;SDS011;20142;28.494;-16.312;2022-08-19T20:00:26;25.60;;;5.50;;
33840;SDS011;20142;28.494;-16.312;2022-08-19T20:05:28;28.88;;;6.25;;
33840;SDS011;20142;28.494;-16.312;2022-08-19T20:10:30;34.22;;;6.25;;
33840;SDS011;20142;28.494;-16.312;2022-08-19T20:15:32;19.20;;;4.93;;
33840;SDS011;20142;28.494;-16.312;2022-08-19T20:20:34;26.02;;;5.20;;
33840;SDS011;20142;28.494;-16.312;2022-08-19T20:25:37;24.45;;;5.47;;
33840;SDS011;20142;28.494;-16.312;2022-08-19T20:30:40;21.77;;;5.32;;
33840;SDS011;20142;28.494;-16.312;2022-08-19T20:35:42;24.83;;;5.90;;
33840;SDS011;20142;28.494;-16.312;2022-08-19T20:40:45;26.75;;;5.30;;
33840;SDS011;20142;28.494;-16.312;2022-08-19T20:45:47;33.15;;;6.70;;
33840;SDS011;20142;28.494;-16.312;2022-08-19T20:50:49;30.45;;;5.68;;
33840;SDS011;20142;28.494;-16.312;2022-08-19T20:55:51;28.45;;;5.63;;
33840;SDS011;20142;28.494;-16.312;2022-08-19T21:00:55;39.53;;;7.05;;
33840;SDS011;20142;28.494;-16.312;2022-08-19T21:05:59;23.75;;;5.43;;
33840;SDS011;20142;28.494;-16.312;2022-08-19T21:11:01;25.13;;;5.72;;
33840;SDS011;20142;28.494;-16.312;2022-08-19T21:16:04;31.20;;;5.97;;
33840;SDS011;20142;28.494;-16.312;2022-08-19T21:21:06;22.08;;;5.85;;
33840;SDS011;20142;28.494;-16.312;2022-08-19T21:26:08;35.28;;;6.57;;
33840;SDS011;20142;28.494;-16.312;2022-08-19T21:31:10;30.75;;;6.43;;
33840;SDS011;20142;28.494;-16.312;2022-08-19T21:36:14;31.52;;;6.32;;
33840;SDS011;20142;28.494;-16.312;2022-08-19T21:41:16;31.42;;;6.68;;
33840;SDS011;20142;28.494;-16.312;2022-08-19T21:46:18;32.08;;;5.82;;
33840;SDS011;20142;28.494;-16.312;2022-08-19T21:51:20;36.30;;;6.70;;
33840;SDS011;20142;28.494;-16.312;2022-08-19T21:56:23;21.65;;;6.80;;
33840;SDS011;20142;28.494;-16.312;2022-08-19T22:01:24;31.23;;;6.80;;
33840;SDS011;20142;28.494;-16.312;2022-08-19T22:06:26;40.97;;;8.02;;
33840;SDS011;20142;28.494;-16.312;2022-08-19T22:11:28;22.55;;;6.53;;
33840;SDS011;20142;28.494;-16.312;2022-08-19T22:16:30;29.67;;;7.10;;
33840;SDS011;20142;28.494;-16.312;2022-08-19T22:21:32;31.98;;;7.50;;
33840;SDS011;20142;28.494;-16.312;2022-08-19T22:26:36;28.33;;;6.95;;
33840;SDS011;20142;28.494;-16.312;2022-08-19T22:31:38;33.55;;;6.03;;
33840;SDS011;20142;28.494;-16.312;2022-08-19T22:36:40;35.63;;;7.15;;
33840;SDS011;20142;28.494;-16.312;2022-08-19T22:41:41;29.80;;;6.70;;
33840;SDS011;20142;28.494;-16.312;2022-08-19T22:46:43;29.88;;;5.65;;
33840;SDS011;20142;28.494;-16.312;2022-08-19T22:51:45;27.55;;;6.03;;
33840;SDS011;20142;28.494;-16.312;2022-08-19T22:57:06;23.20;;;5.80;;
33840;SDS011;20142;28.494;-16.312;2022-08-19T23:02:08;34.08;;;6.30;;
33840;SDS011;20142;28.494;-16.312;2022-08-19T23:07:10;28.52;;;5.57;;
33840;SDS011;20142;28.494;-16.312;2022-08-19T23:12:12;34.95;;;6.30;;
33840;SDS011;20142;28.494;-16.312;2022-08-19T23:17:14;36.15;;;6.68;;
33840;SDS011;20142;28.494;-16.312;2022-08-19T23:22:17;32.47;;;6.95;;
33840;SDS011;20142;28.494;-16.312;2022-08-19T23:27:19;31.10;;;5.95;;
33840;SDS011;20142;28.494;-16.312;2022-08-19T23:32:39;30.63;;;6.20;;
33840;SDS011;20142;28.494;-16.312;2022-08-19T23:37:41;41.53;;;6.75;;
33840;SDS011;20142;28.494;-16.312;2022-08-19T23:42:43;25.42;;;5.28;;
33840;SDS011;20142;28.494;-16.312;2022-08-19T23:47:46;30.17;;;6.50;;
33840;SDS011;20142;28.494;-16.312;2022-08-19T23:52:50;32.75;;;6.22;;
33840;SDS011;20142;28.494;-16.312;2022-08-19T23:57:53;29.50;;;5.68;;
